sensor_id;sensor_type;location;lat;lon;timestamp;temperature;humidity
48604;DHT22;32708;51.212;6.788;2024-01-27T00:01:23;5.50;99.90
48604;DHT22;32708;51.212;6.788;2024-01-27T00:03:49;6.00;99.90
48604;DHT22;32708;51.212;6.788;2024-01-27T00:06:16;5.30;99.90
48604;DHT22;32708;51.212;6.788;2024-01-27T00:08:42;5.30;99.90
48604;DHT22;32708;51.212;6.788;2024-01-27T00:11:11;5.80;99.90
48604;DHT22;32708;51.212;6.788;2024-01-27T00:13:37;5.30;99.90
48604;DHT22;32708;51.212;6.788;2024-01-27T00:16:04;6.10;99.90
48604;DHT22;32708;51.212;6.788;2024-01-27T00:18:31;5.40;99.90
48604;DHT22;32708;51.212;6.788;2024-01-27T00:20:57;5.30;99.90
48604;DHT22;32708;51.212;6.788;2024-01-27T00:23:23;5.80;99.90
48604;DHT22;32708;51.212;6.788;2024-01-27T00:25:49;5.80;99.90
48604;DHT22;32708;51.212;6.788;2024-01-27T00:28:19;5.90;99.90
48604;DHT22;32708;51.212;6.788;2024-01-27T00:30:45;5.40;99.90
48604;DHT22;32708;51.212;6.788;2024-01-27T00:33:12;5.30;99.90
48604;DHT22;32708;51.212;6.788;2024-01-27T00:35:39;5.50;99.90
48604;DHT22;32708;51.212;6.788;2024-01-27T00:38:05;6.20;99.90
48604;DHT22;32708;51.212;6.788;2024-01-27T00:40:31;5.90;99.90
48604;DHT22;32708;51.212;6.788;2024-01-27T00:42:57;5.60;99.90
48604;DHT22;32708;51.212;6.788;2024-01-27T00:45:25;5.40;99.90
48604;DHT22;32708;51.212;6.788;2024-01-27T00:47:53;5.50;99.90
48604;DHT22;32708;51.212;6.788;2024-01-27T00:50:19;5.40;99.90
48604;DHT22;32708;51.212;6.788;2024-01-27T00:52:45;5.50;99.90
48604;DHT22;32708;51.212;6.788;2024-01-27T00:55:12;5.30;99.90
48604;DHT22;32708;51.212;6.788;2024-01-27T00:57:38;5.80;99.90
48604;DHT22;32708;51.212;6.788;2024-01-27T01:00:09;5.30;99.90
48604;DHT22;32708;51.212;6.788;2024-01-27T01:02:38;5.20;99.90
48604;DHT22;32708;51.212;6.788;2024-01-27T01:05:04;5.20;99.90
48604;DHT22;32708;51.212;6.788;2024-01-27T01:07:31;5.30;99.90
48604;DHT22;32708;51.212;6.788;2024-01-27T01:09:57;5.50;99.90
48604;DHT22;32708;51.212;6.788;2024-01-27T01:12:24;5.10;99.90
48604;DHT22;32708;51.212;6.788;2024-01-27T01:14:54;5.20;99.90
48604;DHT22;32708;51.212;6.788;2024-01-27T01:17:21;5.10;99.90
48604;DHT22;32708;51.212;6.788;2024-01-27T01:19:47;5.10;99.90
48604;DHT22;32708;51.212;6.788;2024-01-27T01:22:14;5.10;99.90
48604;DHT22;32708;51.212;6.788;2024-01-27T01:24:40;5.10;99.90
48604;DHT22;32708;51.212;6.788;2024-01-27T01:27:06;5.40;99.90
48604;DHT22;32708;51.212;6.788;2024-01-27T01:29:32;5.10;99.90
48604;DHT22;32708;51.212;6.788;2024-01-27T01:31:59;5.10;99.90
48604;DHT22;32708;51.212;6.788;2024-01-27T01:34:27;5.10;99.90
48604;DHT22;32708;51.212;6.788;2024-01-27T01:36:54;5.10;99.90
48604;DHT22;32708;51.212;6.788;2024-01-27T01:39:20;5.10;99.90
48604;DHT22;32708;51.212;6.788;2024-01-27T01:41:47;5.10;99.90
48604;DHT22;32708;51.212;6.788;2024-01-27T01:44:13;5.00;99.90
48604;DHT22;32708;51.212;6.788;2024-01-27T01:46:39;5.00;99.90
48604;DHT22;32708;51.212;6.788;2024-01-27T01:49:05;5.00;99.90
48604;DHT22;32708;51.212;6.788;2024-01-27T01:51:32;5.40;99.90
48604;DHT22;32708;51.212;6.788;2024-01-27T01:53:59;5.10;99.90
48604;DHT22;32708;51.212;6.788;2024-01-27T01:56:26;5.10;99.90
48604;DHT22;32708;51.212;6.788;2024-01-27T01:58:54;4.90;99.90
48604;DHT22;32708;51.212;6.788;2024-01-27T02:01:21;5.00;99.90
48604;DHT22;32708;51.212;6.788;2024-01-27T02:03:54;5.00;99.90
48604;DHT22;32708;51.212;6.788;2024-01-27T02:06:22;5.00;99.90
48604;DHT22;32708;51.212;6.788;2024-01-27T02:08:49;5.00;99.90
48604;DHT22;32708;51.212;6.788;2024-01-27T02:11:17;5.00;99.90
48604;DHT22;32708;51.212;6.788;2024-01-27T02:13:43;5.00;99.90
48604;DHT22;32708;51.212;6.788;2024-01-27T02:16:10;5.00;99.90
48604;DHT22;32708;51.212;6.788;2024-01-27T02:18:36;5.00;99.90
48604;DHT22;32708;51.212;6.788;2024-01-27T02:21:02;5.00;99.90
48604;DHT22;32708;51.212;6.788;2024-01-27T02:23:29;4.90;99.90
48604;DHT22;32708;51.212;6.788;2024-01-27T02:25:55;4.80;99.90
48604;DHT22;32708;51.212;6.788;2024-01-27T02:28:24;4.90;99.90
48604;DHT22;32708;51.212;6.788;2024-01-27T02:30:50;4.80;99.90
48604;DHT22;32708;51.212;6.788;2024-01-27T02:33:16;4.70;99.90
48604;DHT22;32708;51.212;6.788;2024-01-27T02:35:43;4.90;99.90
48604;DHT22;32708;51.212;6.788;2024-01-27T02:38:09;4.70;99.90
48604;DHT22;32708;51.212;6.788;2024-01-27T02:40:36;4.70;99.90
48604;DHT22;32708;51.212;6.788;2024-01-27T02:43:02;5.30;99.90
48604;DHT22;32708;51.212;6.788;2024-01-27T02:45:28;4.70;99.90
48604;DHT22;32708;51.212;6.788;2024-01-27T02:47:54;4.70;99.90
48604;DHT22;32708;51.212;6.788;2024-01-27T02:50:20;4.60;99.90
48604;DHT22;32708;51.212;6.788;2024-01-27T02:52:47;4.70;99.90
48604;DHT22;32708;51.212;6.788;2024-01-27T02:55:13;4.70;99.90
48604;DHT22;32708;51.212;6.788;2024-01-27T02:57:40;4.70;99.90
48604;DHT22;32708;51.212;6.788;2024-01-27T03:00:07;4.60;99.90
48604;DHT22;32708;51.212;6.788;2024-01-27T03:02:34;4.60;99.90
48604;DHT22;32708;51.212;6.788;2024-01-27T03:05:00;4.70;99.90
48604;DHT22;32708;51.212;6.788;2024-01-27T03:07:30;4.70;99.90
48604;DHT22;32708;51.212;6.788;2024-01-27T03:09:56;4.80;99.90
48604;DHT22;32708;51.212;6.788;2024-01-27T03:12:22;4.60;99.90
48604;DHT22;32708;51.212;6.788;2024-01-27T03:14:49;4.60;99.90
48604;DHT22;32708;51.212;6.788;2024-01-27T03:17:16;4.50;99.90
48604;DHT22;32708;51.212;6.788;2024-01-27T03:19:43;4.80;99.90
48604;DHT22;32708;51.212;6.788;2024-01-27T03:22:10;4.50;99.90
48604;DHT22;32708;51.212;6.788;2024-01-27T03:24:36;4.40;99.90
48604;DHT22;32708;51.212;6.788;2024-01-27T03:27:03;5.20;99.90
48604;DHT22;32708;51.212;6.788;2024-01-27T03:29:29;4.30;99.90
48604;DHT22;32708;51.212;6.788;2024-01-27T03:31:56;4.30;99.90
48604;DHT22;32708;51.212;6.788;2024-01-27T03:34:22;4.30;99.90
48604;DHT22;32708;51.212;6.788;2024-01-27T03:36:50;4.20;99.90
48604;DHT22;32708;51.212;6.788;2024-01-27T03:39:16;4.20;99.90
48604;DHT22;32708;51.212;6.788;2024-01-27T03:41:43;4.10;99.90
48604;DHT22;32708;51.212;6.788;2024-01-27T03:44:09;4.10;99.90
48604;DHT22;32708;51.212;6.788;2024-01-27T03:46:35;4.20;99.90
48604;DHT22;32708;51.212;6.788;2024-01-27T03:49:05;4.20;99.90
48604;DHT22;32708;51.212;6.788;2024-01-27T03:51:31;4.10;99.90
48604;DHT22;32708;51.212;6.788;2024-01-27T03:53:57;4.00;99.90
48604;DHT22;32708;51.212;6.788;2024-01-27T03:56:23;4.00;99.90
48604;DHT22;32708;51.212;6.788;2024-01-27T03:58:49;3.90;99.90
48604;DHT22;32708;51.212;6.788;2024-01-27T04:01:16;3.90;99.90
48604;DHT22;32708;51.212;6.788;2024-01-27T04:03:42;4.40;99.90
48604;DHT22;32708;51.212;6.788;2024-01-27T04:06:08;3.90;99.90
48604;DHT22;32708;51.212;6.788;2024-01-27T04:08:34;3.80;99.90
48604;DHT22;32708;51.212;6.788;2024-01-27T04:11:02;3.90;99.90
48604;DHT22;32708;51.212;6.788;2024-01-27T04:13:28;4.00;99.90
48604;DHT22;32708;51.212;6.788;2024-01-27T04:15:54;3.80;99.90
48604;DHT22;32708;51.212;6.788;2024-01-27T04:18:21;3.90;99.90
48604;DHT22;32708;51.212;6.788;2024-01-27T04:20:47;4.30;99.90
48604;DHT22;32708;51.212;6.788;2024-01-27T04:23:14;3.70;99.90
48604;DHT22;32708;51.212;6.788;2024-01-27T04:25:40;4.20;99.90
48604;DHT22;32708;51.212;6.788;2024-01-27T04:28:07;3.90;99.90
48604;DHT22;32708;51.212;6.788;2024-01-27T04:30:35;4.00;99.90
48604;DHT22;32708;51.212;6.788;2024-01-27T04:33:01;3.70;99.90
48604;DHT22;32708;51.212;6.788;2024-01-27T04:35:28;3.70;99.90
48604;DHT22;32708;51.212;6.788;2024-01-27T04:37:54;3.60;99.90
48604;DHT22;32708;51.212;6.788;2024-01-27T04:40:25;3.60;99.90
48604;DHT22;32708;51.212;6.788;2024-01-27T04:42:51;3.90;99.90
48604;DHT22;32708;51.212;6.788;2024-01-27T04:45:17;4.00;99.90
48604;DHT22;32708;51.212;6.788;2024-01-27T04:47:44;4.30;99.90
48604;DHT22;32708;51.212;6.788;2024-01-27T04:50:11;3.40;99.90
48604;DHT22;32708;51.212;6.788;2024-01-27T04:52:38;3.30;99.90
48604;DHT22;32708;51.212;6.788;2024-01-27T04:55:07;3.10;99.90
48604;DHT22;32708;51.212;6.788;2024-01-27T04:57:33;3.50;99.90
48604;DHT22;32708;51.212;6.788;2024-01-27T05:00:00;3.20;99.90
48604;DHT22;32708;51.212;6.788;2024-01-27T05:02:26;3.20;99.90
48604;DHT22;32708;51.212;6.788;2024-01-27T05:04:53;3.10;99.90
48604;DHT22;32708;51.212;6.788;2024-01-27T05:07:19;3.20;99.90
48604;DHT22;32708;51.212;6.788;2024-01-27T05:09:45;3.20;99.90
48604;DHT22;32708;51.212;6.788;2024-01-27T05:12:11;2.90;99.90
48604;DHT22;32708;51.212;6.788;2024-01-27T05:14:37;2.90;99.90
48604;DHT22;32708;51.212;6.788;2024-01-27T05:17:09;3.00;99.90
48604;DHT22;32708;51.212;6.788;2024-01-27T05:19:35;3.30;99.90
48604;DHT22;32708;51.212;6.788;2024-01-27T05:22:01;3.00;99.90
48604;DHT22;32708;51.212;6.788;2024-01-27T05:24:28;2.90;99.90
48604;DHT22;32708;51.212;6.788;2024-01-27T05:26:54;3.30;99.90
48604;DHT22;32708;51.212;6.788;2024-01-27T05:29:20;2.80;99.90
48604;DHT22;32708;51.212;6.788;2024-01-27T05:31:46;2.50;99.90
48604;DHT22;32708;51.212;6.788;2024-01-27T05:34:13;2.50;99.90
48604;DHT22;32708;51.212;6.788;2024-01-27T05:36:39;2.60;99.90
48604;DHT22;32708;51.212;6.788;2024-01-27T05:39:06;2.40;99.90
48604;DHT22;32708;51.212;6.788;2024-01-27T05:41:32;2.60;99.90
48604;DHT22;32708;51.212;6.788;2024-01-27T05:43:59;2.40;99.90
48604;DHT22;32708;51.212;6.788;2024-01-27T05:46:26;2.60;99.90
48604;DHT22;32708;51.212;6.788;2024-01-27T05:48:52;2.50;99.90
48604;DHT22;32708;51.212;6.788;2024-01-27T05:51:27;2.80;99.90
48604;DHT22;32708;51.212;6.788;2024-01-27T05:53:53;2.40;99.90
48604;DHT22;32708;51.212;6.788;2024-01-27T05:56:19;2.30;99.90
48604;DHT22;32708;51.212;6.788;2024-01-27T05:58:49;2.40;99.90
48604;DHT22;32708;51.212;6.788;2024-01-27T06:01:17;2.40;99.90
48604;DHT22;32708;51.212;6.788;2024-01-27T06:03:45;2.40;99.90
48604;DHT22;32708;51.212;6.788;2024-01-27T06:06:23;2.40;99.90
48604;DHT22;32708;51.212;6.788;2024-01-27T06:09:15;2.30;99.90
48604;DHT22;32708;51.212;6.788;2024-01-27T06:11:42;2.40;99.90
48604;DHT22;32708;51.212;6.788;2024-01-27T06:14:08;2.50;99.90
48604;DHT22;32708;51.212;6.788;2024-01-27T06:16:34;2.50;99.90
48604;DHT22;32708;51.212;6.788;2024-01-27T06:19:04;2.50;99.90
48604;DHT22;32708;51.212;6.788;2024-01-27T06:21:30;2.50;99.90
48604;DHT22;32708;51.212;6.788;2024-01-27T06:23:56;2.60;99.90
48604;DHT22;32708;51.212;6.788;2024-01-27T06:26:22;3.20;99.90
48604;DHT22;32708;51.212;6.788;2024-01-27T06:28:49;3.00;99.90
48604;DHT22;32708;51.212;6.788;2024-01-27T06:31:16;3.00;99.90
48604;DHT22;32708;51.212;6.788;2024-01-27T06:33:42;2.40;99.90
48604;DHT22;32708;51.212;6.788;2024-01-27T06:36:09;2.30;99.90
48604;DHT22;32708;51.212;6.788;2024-01-27T06:38:37;2.40;99.90
48604;DHT22;32708;51.212;6.788;2024-01-27T06:41:04;2.90;99.90
48604;DHT22;32708;51.212;6.788;2024-01-27T06:43:30;2.40;99.90
48604;DHT22;32708;51.212;6.788;2024-01-27T06:45:56;2.50;99.90
48604;DHT22;32708;51.212;6.788;2024-01-27T06:48:23;2.70;99.90
48604;DHT22;32708;51.212;6.788;2024-01-27T06:50:52;2.30;99.90
48604;DHT22;32708;51.212;6.788;2024-01-27T06:53:19;2.40;99.90
48604;DHT22;32708;51.212;6.788;2024-01-27T06:55:46;2.60;99.90
48604;DHT22;32708;51.212;6.788;2024-01-27T06:58:12;2.40;99.90
48604;DHT22;32708;51.212;6.788;2024-01-27T07:00:39;2.30;99.90
48604;DHT22;32708;51.212;6.788;2024-01-27T07:03:06;3.10;99.90
48604;DHT22;32708;51.212;6.788;2024-01-27T07:05:32;2.70;99.90
48604;DHT22;32708;51.212;6.788;2024-01-27T07:08:06;2.90;99.90
48604;DHT22;32708;51.212;6.788;2024-01-27T07:10:33;2.30;99.90
48604;DHT22;32708;51.212;6.788;2024-01-27T07:13:00;2.30;99.90
48604;DHT22;32708;51.212;6.788;2024-01-27T07:15:26;2.40;99.90
48604;DHT22;32708;51.212;6.788;2024-01-27T07:17:53;2.40;99.90
48604;DHT22;32708;51.212;6.788;2024-01-27T07:20:19;2.30;99.90
48604;DHT22;32708;51.212;6.788;2024-01-27T07:22:49;2.30;99.90
48604;DHT22;32708;51.212;6.788;2024-01-27T07:25:15;2.40;99.90
48604;DHT22;32708;51.212;6.788;2024-01-27T07:27:42;3.00;99.90
48604;DHT22;32708;51.212;6.788;2024-01-27T07:30:08;2.40;99.90
48604;DHT22;32708;51.212;6.788;2024-01-27T07:32:35;2.50;99.90
48604;DHT22;32708;51.212;6.788;2024-01-27T07:35:01;2.80;99.90
48604;DHT22;32708;51.212;6.788;2024-01-27T07:37:28;2.40;99.90
48604;DHT22;32708;51.212;6.788;2024-01-27T07:39:55;2.50;99.90
48604;DHT22;32708;51.212;6.788;2024-01-27T07:42:21;3.20;99.90
48604;DHT22;32708;51.212;6.788;2024-01-27T07:44:47;2.50;99.90
48604;DHT22;32708;51.212;6.788;2024-01-27T07:47:15;3.00;99.90
48604;DHT22;32708;51.212;6.788;2024-01-27T07:49:42;2.70;99.90
48604;DHT22;32708;51.212;6.788;2024-01-27T07:52:08;3.20;99.90
48604;DHT22;32708;51.212;6.788;2024-01-27T07:54:34;2.40;99.90
48604;DHT22;32708;51.212;6.788;2024-01-27T07:57:05;2.60;99.90
48604;DHT22;32708;51.212;6.788;2024-01-27T07:59:34;2.50;99.90
48604;DHT22;32708;51.212;6.788;2024-01-27T08:02:01;2.70;99.90
48604;DHT22;32708;51.212;6.788;2024-01-27T08:04:27;2.60;99.90
48604;DHT22;32708;51.212;6.788;2024-01-27T08:06:53;2.60;99.90
48604;DHT22;32708;51.212;6.788;2024-01-27T08:09:20;3.10;99.90
48604;DHT22;32708;51.212;6.788;2024-01-27T08:11:46;3.00;99.90
48604;DHT22;32708;51.212;6.788;2024-01-27T08:14:17;2.70;99.90
48604;DHT22;32708;51.212;6.788;2024-01-27T08:16:44;2.80;99.90
48604;DHT22;32708;51.212;6.788;2024-01-27T08:19:16;3.60;99.90
48604;DHT22;32708;51.212;6.788;2024-01-27T08:21:46;3.00;99.90
48604;DHT22;32708;51.212;6.788;2024-01-27T08:24:13;3.00;99.90
48604;DHT22;32708;51.212;6.788;2024-01-27T08:26:40;3.10;99.90
48604;DHT22;32708;51.212;6.788;2024-01-27T08:29:11;3.20;99.90
48604;DHT22;32708;51.212;6.788;2024-01-27T08:31:37;3.20;99.90
48604;DHT22;32708;51.212;6.788;2024-01-27T08:34:04;3.40;99.90
48604;DHT22;32708;51.212;6.788;2024-01-27T08:36:31;3.20;99.90
48604;DHT22;32708;51.212;6.788;2024-01-27T08:38:58;3.30;99.90
48604;DHT22;32708;51.212;6.788;2024-01-27T08:41:24;3.40;99.90
48604;DHT22;32708;51.212;6.788;2024-01-27T08:43:50;3.50;99.90
48604;DHT22;32708;51.212;6.788;2024-01-27T08:46:16;3.60;99.90
48604;DHT22;32708;51.212;6.788;2024-01-27T08:48:45;3.50;99.90
48604;DHT22;32708;51.212;6.788;2024-01-27T08:51:11;3.60;99.90
48604;DHT22;32708;51.212;6.788;2024-01-27T08:53:38;3.60;99.90
48604;DHT22;32708;51.212;6.788;2024-01-27T08:56:04;4.10;99.90
48604;DHT22;32708;51.212;6.788;2024-01-27T08:58:32;3.80;99.90
48604;DHT22;32708;51.212;6.788;2024-01-27T09:00:58;4.30;99.90
48604;DHT22;32708;51.212;6.788;2024-01-27T09:03:31;3.90;99.90
48604;DHT22;32708;51.212;6.788;2024-01-27T09:05:57;4.00;99.90
48604;DHT22;32708;51.212;6.788;2024-01-27T09:08:23;3.90;99.90
48604;DHT22;32708;51.212;6.788;2024-01-27T09:10:49;4.10;99.90
48604;DHT22;32708;51.212;6.788;2024-01-27T09:13:16;4.10;99.90
48604;DHT22;32708;51.212;6.788;2024-01-27T09:15:42;4.00;99.90
48604;DHT22;32708;51.212;6.788;2024-01-27T09:18:09;4.20;99.90
48604;DHT22;32708;51.212;6.788;2024-01-27T09:20:38;4.40;99.90
48604;DHT22;32708;51.212;6.788;2024-01-27T09:23:04;4.60;99.90
48604;DHT22;32708;51.212;6.788;2024-01-27T09:25:31;4.80;99.90
48604;DHT22;32708;51.212;6.788;2024-01-27T09:27:57;4.70;99.90
48604;DHT22;32708;51.212;6.788;2024-01-27T09:30:26;4.70;99.90
48604;DHT22;32708;51.212;6.788;2024-01-27T09:32:53;4.80;99.90
48604;DHT22;32708;51.212;6.788;2024-01-27T09:35:19;4.90;99.90
48604;DHT22;32708;51.212;6.788;2024-01-27T09:37:46;4.90;99.90
48604;DHT22;32708;51.212;6.788;2024-01-27T09:40:12;4.90;98.20
48604;DHT22;32708;51.212;6.788;2024-01-27T09:42:39;4.90;98.80
48604;DHT22;32708;51.212;6.788;2024-01-27T09:45:13;5.50;95.20
48604;DHT22;32708;51.212;6.788;2024-01-27T09:47:39;5.50;93.50
48604;DHT22;32708;51.212;6.788;2024-01-27T09:50:11;5.20;87.30
48604;DHT22;32708;51.212;6.788;2024-01-27T09:52:38;5.20;77.00
48604;DHT22;32708;51.212;6.788;2024-01-27T09:55:05;5.20;67.60
48604;DHT22;32708;51.212;6.788;2024-01-27T09:57:32;5.40;70.70
48604;DHT22;32708;51.212;6.788;2024-01-27T10:00:03;5.40;57.20
48604;DHT22;32708;51.212;6.788;2024-01-27T10:02:31;5.50;48.10
48604;DHT22;32708;51.212;6.788;2024-01-27T10:05:01;5.50;30.70
48604;DHT22;32708;51.212;6.788;2024-01-27T10:07:28;5.50;24.80
48604;DHT22;32708;51.212;6.788;2024-01-27T10:09:54;5.60;28.70
48604;DHT22;32708;51.212;6.788;2024-01-27T10:12:21;5.60;19.90
48604;DHT22;32708;51.212;6.788;2024-01-27T10:14:48;5.70;17.90
48604;DHT22;32708;51.212;6.788;2024-01-27T10:17:23;5.80;10.40
48604;DHT22;32708;51.212;6.788;2024-01-27T10:20:04;6.00;1.00
48604;DHT22;32708;51.212;6.788;2024-01-27T10:22:38;6.10;1.00
48604;DHT22;32708;51.212;6.788;2024-01-27T10:25:09;6.20;1.00
48604;DHT22;32708;51.212;6.788;2024-01-27T10:27:37;6.60;1.00
48604;DHT22;32708;51.212;6.788;2024-01-27T10:30:04;6.10;1.00
48604;DHT22;32708;51.212;6.788;2024-01-27T10:35:58;6.20;1.00
48604;DHT22;32708;51.212;6.788;2024-01-27T10:38:39;6.50;1.00
48604;DHT22;32708;51.212;6.788;2024-01-27T10:41:09;7.00;99.90
48604;DHT22;32708;51.212;6.788;2024-01-27T10:43:37;6.50;99.90
48604;DHT22;32708;51.212;6.788;2024-01-27T10:46:06;6.70;99.90
48604;DHT22;32708;51.212;6.788;2024-01-27T10:48:37;6.60;99.90
48604;DHT22;32708;51.212;6.788;2024-01-27T10:51:09;6.80;99.90
48604;DHT22;32708;51.212;6.788;2024-01-27T10:53:37;6.60;99.90
48604;DHT22;32708;51.212;6.788;2024-01-27T10:56:06;6.70;99.90
48604;DHT22;32708;51.212;6.788;2024-01-27T10:58:35;6.80;99.90
48604;DHT22;32708;51.212;6.788;2024-01-27T11:01:14;6.70;92.30
48604;DHT22;32708;51.212;6.788;2024-01-27T11:03:42;6.80;99.90
48604;DHT22;32708;51.212;6.788;2024-01-27T11:06:12;7.00;1.00
48604;DHT22;32708;51.212;6.788;2024-01-27T11:08:39;7.10;1.00
48604;DHT22;32708;51.212;6.788;2024-01-27T11:11:06;7.10;1.00
48604;DHT22;32708;51.212;6.788;2024-01-27T11:13:33;7.00;99.90
48604;DHT22;32708;51.212;6.788;2024-01-27T11:16:00;7.00;15.80
48604;DHT22;32708;51.212;6.788;2024-01-27T11:18:27;6.80;99.90
48604;DHT22;32708;51.212;6.788;2024-01-27T11:20:58;6.80;99.90
48604;DHT22;32708;51.212;6.788;2024-01-27T11:23:32;6.80;99.90
48604;DHT22;32708;51.212;6.788;2024-01-27T11:26:04;7.10;1.00
48604;DHT22;32708;51.212;6.788;2024-01-27T11:28:31;7.30;99.90
48604;DHT22;32708;51.212;6.788;2024-01-27T11:30:57;7.40;99.90
48604;DHT22;32708;51.212;6.788;2024-01-27T11:33:26;7.30;99.90
48604;DHT22;32708;51.212;6.788;2024-01-27T11:36:05;7.30;99.90
48604;DHT22;32708;51.212;6.788;2024-01-27T11:38:32;7.40;99.90
48604;DHT22;32708;51.212;6.788;2024-01-27T11:41:00;7.40;99.90
48604;DHT22;32708;51.212;6.788;2024-01-27T11:43:28;7.40;1.00
48604;DHT22;32708;51.212;6.788;2024-01-27T11:46:01;7.60;99.90
48604;DHT22;32708;51.212;6.788;2024-01-27T11:48:27;7.70;99.90
48604;DHT22;32708;51.212;6.788;2024-01-27T11:51:05;7.60;99.90
48604;DHT22;32708;51.212;6.788;2024-01-27T11:53:36;7.60;58.60
48604;DHT22;32708;51.212;6.788;2024-01-27T11:56:04;7.60;52.60
48604;DHT22;32708;51.212;6.788;2024-01-27T11:58:31;7.80;99.90
48604;DHT22;32708;51.212;6.788;2024-01-27T12:00:57;7.70;99.90
48604;DHT22;32708;51.212;6.788;2024-01-27T12:03:27;7.70;21.80
48604;DHT22;32708;51.212;6.788;2024-01-27T12:05:55;7.80;22.70
48604;DHT22;32708;51.212;6.788;2024-01-27T12:08:21;7.90;99.90
48604;DHT22;32708;51.212;6.788;2024-01-27T12:10:47;7.90;1.00
48604;DHT22;32708;51.212;6.788;2024-01-27T12:13:14;7.90;99.90
48604;DHT22;32708;51.212;6.788;2024-01-27T12:15:41;8.00;99.90
48604;DHT22;32708;51.212;6.788;2024-01-27T12:18:09;8.00;16.30
48604;DHT22;32708;51.212;6.788;2024-01-27T12:20:36;8.00;1.00
48604;DHT22;32708;51.212;6.788;2024-01-27T12:23:06;8.00;91.20
48604;DHT22;32708;51.212;6.788;2024-01-27T12:25:33;8.10;59.40
48604;DHT22;32708;51.212;6.788;2024-01-27T12:28:03;8.30;99.90
48604;DHT22;32708;51.212;6.788;2024-01-27T12:30:32;8.10;99.90
48604;DHT22;32708;51.212;6.788;2024-01-27T12:33:00;8.70;69.20
48604;DHT22;32708;51.212;6.788;2024-01-27T12:35:27;8.10;99.90
48604;DHT22;32708;51.212;6.788;2024-01-27T12:37:55;8.10;1.00
48604;DHT22;32708;51.212;6.788;2024-01-27T12:40:22;8.20;99.90
48604;DHT22;32708;51.212;6.788;2024-01-27T12:42:49;8.10;99.90
48604;DHT22;32708;51.212;6.788;2024-01-27T12:45:15;8.20;99.90
48604;DHT22;32708;51.212;6.788;2024-01-27T12:47:42;8.20;99.90
48604;DHT22;32708;51.212;6.788;2024-01-27T12:50:09;8.30;99.90
48604;DHT22;32708;51.212;6.788;2024-01-27T12:52:37;8.30;84.10
48604;DHT22;32708;51.212;6.788;2024-01-27T12:55:04;8.10;99.90
48604;DHT22;32708;51.212;6.788;2024-01-27T12:57:31;8.20;1.00
48604;DHT22;32708;51.212;6.788;2024-01-27T12:59:57;8.10;99.90
48604;DHT22;32708;51.212;6.788;2024-01-27T13:02:24;8.30;99.90
48604;DHT22;32708;51.212;6.788;2024-01-27T13:04:50;8.40;99.90
48604;DHT22;32708;51.212;6.788;2024-01-27T13:07:16;8.80;7.70
48604;DHT22;32708;51.212;6.788;2024-01-27T13:09:43;8.70;1.00
48604;DHT22;32708;51.212;6.788;2024-01-27T13:12:09;8.80;99.90
48604;DHT22;32708;51.212;6.788;2024-01-27T13:14:35;8.90;99.90
48604;DHT22;32708;51.212;6.788;2024-01-27T13:17:02;8.80;99.90
48604;DHT22;32708;51.212;6.788;2024-01-27T13:19:29;8.90;99.90
48604;DHT22;32708;51.212;6.788;2024-01-27T13:21:56;9.00;1.80
48604;DHT22;32708;51.212;6.788;2024-01-27T13:24:22;9.00;1.00
48604;DHT22;32708;51.212;6.788;2024-01-27T13:26:50;8.90;1.00
48604;DHT22;32708;51.212;6.788;2024-01-27T13:29:17;9.00;1.00
48604;DHT22;32708;51.212;6.788;2024-01-27T13:31:43;9.00;99.90
48604;DHT22;32708;51.212;6.788;2024-01-27T13:34:10;8.90;1.00
48604;DHT22;32708;51.212;6.788;2024-01-27T13:36:36;8.70;1.00
48604;DHT22;32708;51.212;6.788;2024-01-27T13:39:02;8.80;99.90
48604;DHT22;32708;51.212;6.788;2024-01-27T13:41:31;8.60;99.90
48604;DHT22;32708;51.212;6.788;2024-01-27T13:44:00;8.90;1.00
48604;DHT22;32708;51.212;6.788;2024-01-27T13:46:26;8.50;1.00
48604;DHT22;32708;51.212;6.788;2024-01-27T13:48:53;8.70;1.00
48604;DHT22;32708;51.212;6.788;2024-01-27T13:51:19;8.60;1.00
48604;DHT22;32708;51.212;6.788;2024-01-27T13:53:46;8.60;1.00
48604;DHT22;32708;51.212;6.788;2024-01-27T13:56:12;8.60;61.90
48604;DHT22;32708;51.212;6.788;2024-01-27T13:58:42;8.70;40.70
48604;DHT22;32708;51.212;6.788;2024-01-27T14:01:09;8.70;1.00
48604;DHT22;32708;51.212;6.788;2024-01-27T14:03:35;9.00;1.00
48604;DHT22;32708;51.212;6.788;2024-01-27T14:06:03;8.80;99.90
48604;DHT22;32708;51.212;6.788;2024-01-27T14:08:33;8.70;99.90
48604;DHT22;32708;51.212;6.788;2024-01-27T14:10:59;8.60;99.90
48604;DHT22;32708;51.212;6.788;2024-01-27T14:13:25;8.80;99.90
48604;DHT22;32708;51.212;6.788;2024-01-27T14:15:51;8.90;99.90
48604;DHT22;32708;51.212;6.788;2024-01-27T14:18:18;8.90;99.90
48604;DHT22;32708;51.212;6.788;2024-01-27T14:20:47;9.00;99.90
48604;DHT22;32708;51.212;6.788;2024-01-27T14:23:15;8.90;99.90
48604;DHT22;32708;51.212;6.788;2024-01-27T14:25:41;8.90;99.90
48604;DHT22;32708;51.212;6.788;2024-01-27T14:28:08;8.80;99.90
48604;DHT22;32708;51.212;6.788;2024-01-27T14:30:36;8.90;96.90
48604;DHT22;32708;51.212;6.788;2024-01-27T14:33:02;8.90;95.30
48604;DHT22;32708;51.212;6.788;2024-01-27T14:35:29;8.70;99.90
48604;DHT22;32708;51.212;6.788;2024-01-27T14:37:55;8.60;99.90
48604;DHT22;32708;51.212;6.788;2024-01-27T14:40:23;8.70;98.20
48604;DHT22;32708;51.212;6.788;2024-01-27T14:42:52;8.90;72.00
48604;DHT22;32708;51.212;6.788;2024-01-27T14:45:18;9.10;82.00
48604;DHT22;32708;51.212;6.788;2024-01-27T14:47:46;9.00;67.70
48604;DHT22;32708;51.212;6.788;2024-01-27T14:50:12;8.90;27.80
48604;DHT22;32708;51.212;6.788;2024-01-27T14:52:39;9.00;26.90
48604;DHT22;32708;51.212;6.788;2024-01-27T14:55:05;8.90;20.80
48604;DHT22;32708;51.212;6.788;2024-01-27T14:57:34;8.90;11.20
48604;DHT22;32708;51.212;6.788;2024-01-27T15:00:03;9.00;4.00
48604;DHT22;32708;51.212;6.788;2024-01-27T15:02:31;9.10;1.00
48604;DHT22;32708;51.212;6.788;2024-01-27T15:05:02;9.10;1.00
48604;DHT22;32708;51.212;6.788;2024-01-27T15:07:30;8.80;23.20
48604;DHT22;32708;51.212;6.788;2024-01-27T15:09:57;8.80;68.00
48604;DHT22;32708;51.212;6.788;2024-01-27T15:12:23;9.40;94.70
48604;DHT22;32708;51.212;6.788;2024-01-27T15:14:51;8.90;99.20
48604;DHT22;32708;51.212;6.788;2024-01-27T15:17:18;8.90;99.90
48604;DHT22;32708;51.212;6.788;2024-01-27T15:19:45;8.90;99.90
48604;DHT22;32708;51.212;6.788;2024-01-27T15:22:12;8.90;99.30
48604;DHT22;32708;51.212;6.788;2024-01-27T15:24:39;8.80;99.90
48604;DHT22;32708;51.212;6.788;2024-01-27T15:27:06;8.90;99.90
48604;DHT22;32708;51.212;6.788;2024-01-27T15:29:32;8.90;99.90
48604;DHT22;32708;51.212;6.788;2024-01-27T15:31:58;8.70;99.90
48604;DHT22;32708;51.212;6.788;2024-01-27T15:34:24;8.70;99.90
48604;DHT22;32708;51.212;6.788;2024-01-27T15:36:51;8.70;99.90
48604;DHT22;32708;51.212;6.788;2024-01-27T15:39:19;8.60;99.90
48604;DHT22;32708;51.212;6.788;2024-01-27T15:41:45;8.50;99.90
48604;DHT22;32708;51.212;6.788;2024-01-27T15:44:13;8.60;99.90
48604;DHT22;32708;51.212;6.788;2024-01-27T15:46:42;8.50;99.90
48604;DHT22;32708;51.212;6.788;2024-01-27T15:49:08;8.50;99.90
48604;DHT22;32708;51.212;6.788;2024-01-27T15:51:34;8.50;99.90